createdAt,value
2022-10-31T00:00:47.856Z,1008.21
2022-10-31T00:01:47.730Z,1008.23
2022-10-31T00:02:47.722Z,1008.25
2022-10-31T00:03:47.684Z,1008.25
2022-10-31T00:04:47.755Z,1008.24
2022-10-31T00:05:47.669Z,1008.24
2022-10-31T00:06:47.657Z,1008.24
2022-10-31T00:07:47.668Z,1008.23
2022-10-31T00:08:47.668Z,1008.22
2022-10-31T00:09:47.608Z,1008.22
2022-10-31T00:10:47.617Z,1008.21
2022-10-31T00:11:47.600Z,1008.22
2022-10-31T00:12:47.596Z,1008.23
2022-10-31T00:13:47.617Z,1008.23
2022-10-31T00:14:47.584Z,1008.22
2022-10-31T00:15:47.561Z,1008.22
2022-10-31T00:16:47.541Z,1008.24
2022-10-31T00:17:47.530Z,1008.23
2022-10-31T00:18:47.545Z,1008.21
2022-10-31T00:19:47.496Z,1008.20
2022-10-31T00:20:47.525Z,1008.20
2022-10-31T00:21:47.532Z,1008.21
2022-10-31T00:22:47.479Z,1008.21
2022-10-31T00:23:47.475Z,1008.21
2022-10-31T00:24:47.475Z,1008.23
2022-10-31T00:25:47.429Z,1008.24
2022-10-31T00:26:47.456Z,1008.24
2022-10-31T00:27:47.424Z,1008.24
2022-10-31T00:28:47.437Z,1008.25
2022-10-31T00:29:47.414Z,1008.26
2022-10-31T00:30:47.411Z,1008.28
2022-10-31T00:31:47.385Z,1008.30
2022-10-31T00:32:47.378Z,1008.29
2022-10-31T00:33:47.355Z,1008.28
2022-10-31T00:34:47.370Z,1008.28
2022-10-31T00:35:47.348Z,1008.28
2022-10-31T00:36:47.325Z,1008.27
2022-10-31T00:37:47.308Z,1008.26
2022-10-31T00:38:47.320Z,1008.25
2022-10-31T00:39:47.307Z,1008.25
2022-10-31T00:40:47.302Z,1008.25
2022-10-31T00:41:47.281Z,1008.25
2022-10-31T00:42:47.265Z,1008.26
2022-10-31T00:43:47.252Z,1008.27
2022-10-31T00:44:47.255Z,1008.28
2022-10-31T00:45:47.224Z,1008.29
2022-10-31T00:46:47.213Z,1008.30
2022-10-31T00:47:47.192Z,1008.29
2022-10-31T00:48:47.200Z,1008.29
2022-10-31T00:49:47.208Z,1008.28
2022-10-31T00:50:47.181Z,1008.25
2022-10-31T00:51:47.160Z,1008.22
2022-10-31T00:52:47.174Z,1008.24
2022-10-31T00:53:47.131Z,1008.28
2022-10-31T00:54:47.157Z,1008.30
2022-10-31T00:55:47.125Z,1008.30
2022-10-31T00:56:47.144Z,1008.27
2022-10-31T00:57:47.101Z,1008.23
2022-10-31T00:58:47.088Z,1008.22
2022-10-31T00:59:47.105Z,1008.23
2022-10-31T01:00:50.898Z,1008.24
2022-10-31T01:01:47.187Z,1008.24
2022-10-31T01:02:47.193Z,1008.25
2022-10-31T01:03:47.060Z,1008.27
2022-10-31T01:04:47.055Z,1008.28
2022-10-31T01:05:53.554Z,1008.28
2022-10-31T01:06:53.496Z,1008.30
2022-10-31T01:07:46.994Z,1008.32
2022-10-31T01:08:46.991Z,1008.30
2022-10-31T01:09:46.992Z,1008.28
2022-10-31T01:10:46.961Z,1008.28
2022-10-31T01:11:46.965Z,1008.30
2022-10-31T01:12:46.949Z,1008.31
2022-10-31T01:13:46.972Z,1008.34
2022-10-31T01:14:46.940Z,1008.35
2022-10-31T01:15:46.927Z,1008.34
2022-10-31T01:16:46.895Z,1008.33
2022-10-31T01:17:46.879Z,1008.32
2022-10-31T01:18:46.884Z,1008.30
2022-10-31T01:19:46.897Z,1008.30
2022-10-31T01:20:46.870Z,1008.31
2022-10-31T01:21:46.839Z,1008.31
2022-10-31T01:22:46.849Z,1008.31
2022-10-31T01:23:46.852Z,1008.31
2022-10-31T01:24:46.853Z,1008.31
2022-10-31T01:25:46.820Z,1008.31
2022-10-31T01:26:46.824Z,1008.30
2022-10-31T01:27:46.803Z,1008.31
2022-10-31T01:28:46.807Z,1008.32
2022-10-31T01:29:46.822Z,1008.33
2022-10-31T01:30:46.784Z,1008.33
2022-10-31T01:31:46.742Z,1008.34
2022-10-31T01:32:46.734Z,1008.35
2022-10-31T01:33:46.723Z,1008.36
2022-10-31T01:34:46.733Z,1008.38
2022-10-31T01:35:46.710Z,1008.39
2022-10-31T01:36:46.694Z,1008.39
2022-10-31T01:37:53.174Z,1008.37
2022-10-31T01:38:54.174Z,1008.33
2022-10-31T01:39:54.489Z,1008.31
2022-10-31T01:40:53.172Z,1008.30
2022-10-31T01:41:53.152Z,1008.32
2022-10-31T01:42:53.140Z,1008.33
2022-10-31T01:43:46.610Z,1008.34
2022-10-31T01:44:54.551Z,1008.34
2022-10-31T01:45:53.104Z,1008.32
2022-10-31T01:46:53.113Z,1008.32
2022-10-31T01:47:54.078Z,1008.32
2022-10-31T01:48:53.073Z,1008.32
2022-10-31T01:49:46.554Z,1008.31
2022-10-31T01:50:46.555Z,1008.32
2022-10-31T01:51:46.534Z,1008.34
2022-10-31T01:52:46.510Z,1008.33
2022-10-31T01:53:46.507Z,1008.31
2022-10-31T01:54:46.509Z,1008.31
2022-10-31T01:55:46.518Z,1008.31
2022-10-31T01:56:46.472Z,1008.31
2022-10-31T01:57:46.467Z,1008.32
2022-10-31T01:58:46.450Z,1008.34
2022-10-31T01:59:46.444Z,1008.36
2022-10-31T02:00:46.566Z,1008.36
2022-10-31T02:01:46.574Z,1008.34
2022-10-31T02:02:46.546Z,1008.30
2022-10-31T02:03:46.428Z,1008.28
2022-10-31T02:04:46.408Z,1008.26
2022-10-31T02:05:46.416Z,1008.27
2022-10-31T02:06:46.399Z,1008.28
2022-10-31T02:07:46.362Z,1008.28
2022-10-31T02:08:46.412Z,1008.28
2022-10-31T02:09:46.346Z,1008.28
2022-10-31T02:10:46.361Z,1008.27
2022-10-31T02:11:46.326Z,1008.28
2022-10-31T02:12:46.313Z,1008.29
2022-10-31T02:13:46.311Z,1008.31
2022-10-31T02:14:46.286Z,1008.33
2022-10-31T02:15:46.300Z,1008.36
2022-10-31T02:16:46.291Z,1008.37
2022-10-31T02:17:46.285Z,1008.38
2022-10-31T02:18:46.281Z,1008.37
2022-10-31T02:19:46.255Z,1008.37
2022-10-31T02:20:46.271Z,1008.37
2022-10-31T02:21:46.222Z,1008.38
2022-10-31T02:22:46.224Z,1008.38
2022-10-31T02:23:47.985Z,1008.39
2022-10-31T02:24:46.183Z,1008.39
2022-10-31T02:25:46.204Z,1008.36
2022-10-31T02:26:46.184Z,1008.33
2022-10-31T02:27:46.156Z,1008.30
2022-10-31T02:28:46.166Z,1008.31
2022-10-31T02:29:46.144Z,1008.32
2022-10-31T02:30:46.149Z,1008.36
2022-10-31T02:31:46.123Z,1008.39
2022-10-31T02:32:46.099Z,1008.42
2022-10-31T02:33:46.093Z,1008.44
2022-10-31T02:34:46.092Z,1008.46
2022-10-31T02:35:46.068Z,1008.47
2022-10-31T02:36:46.087Z,1008.46
2022-10-31T02:37:46.066Z,1008.44
2022-10-31T02:38:46.042Z,1008.41
2022-10-31T02:39:46.028Z,1008.40
2022-10-31T02:40:46.017Z,1008.39
2022-10-31T02:41:46.028Z,1008.39
2022-10-31T02:42:46.002Z,1008.39
2022-10-31T02:43:45.992Z,1008.41
2022-10-31T02:44:45.967Z,1008.42
2022-10-31T02:45:45.986Z,1008.43
2022-10-31T02:46:45.973Z,1008.44
2022-10-31T02:47:45.947Z,1008.45
2022-10-31T02:48:45.942Z,1008.45
2022-10-31T02:49:45.932Z,1008.44
2022-10-31T02:50:45.904Z,1008.42
2022-10-31T02:51:45.924Z,1008.41
2022-10-31T02:52:45.883Z,1008.41
2022-10-31T02:53:45.878Z,1008.42
2022-10-31T02:54:45.877Z,1008.43
2022-10-31T02:55:45.856Z,1008.43
2022-10-31T02:56:45.863Z,1008.42
2022-10-31T02:57:45.867Z,1008.42
2022-10-31T02:58:45.823Z,1008.41
2022-10-31T02:59:45.817Z,1008.40
2022-10-31T03:00:48.372Z,1008.39
2022-10-31T03:01:45.914Z,1008.37
2022-10-31T03:02:45.867Z,1008.34
2022-10-31T03:03:45.800Z,1008.31
2022-10-31T03:04:45.760Z,1008.31
2022-10-31T03:05:45.762Z,1008.31
2022-10-31T03:06:45.760Z,1008.31
2022-10-31T03:07:45.730Z,1008.31
2022-10-31T03:08:45.711Z,1008.32
2022-10-31T03:09:45.713Z,1008.30
2022-10-31T03:10:45.693Z,1008.28
2022-10-31T03:11:45.706Z,1008.26
2022-10-31T03:12:48.599Z,1008.25
2022-10-31T03:13:45.688Z,1008.27
2022-10-31T03:14:45.648Z,1008.31
2022-10-31T03:15:45.655Z,1008.35
2022-10-31T03:16:45.661Z,1008.38
2022-10-31T03:17:45.650Z,1008.39
2022-10-31T03:18:45.604Z,1008.39
2022-10-31T03:19:45.599Z,1008.39
2022-10-31T03:22:13.155Z,1008.39
2022-10-31T03:22:18.191Z,1008.38
2022-10-31T03:23:18.171Z,1008.38
2022-10-31T03:24:18.192Z,1008.37
2022-10-31T03:25:18.144Z,1008.38
2022-10-31T03:26:18.146Z,1008.38
2022-10-31T03:27:18.157Z,1008.39
2022-10-31T03:29:18.104Z,1008.38
2022-10-31T03:30:18.108Z,1008.38
2022-10-31T03:31:18.091Z,1008.37
2022-10-31T03:32:18.103Z,1008.35
2022-10-31T03:33:18.074Z,1008.33
2022-10-31T03:34:18.091Z,1008.32
2022-10-31T03:35:18.042Z,1008.30
2022-10-31T03:36:18.038Z,1008.30
2022-10-31T03:37:18.041Z,1008.29
2022-10-31T03:38:18.029Z,1008.28
2022-10-31T03:39:17.993Z,1008.26
2022-10-31T03:40:17.987Z,1008.26
2022-10-31T03:41:17.978Z,1008.24
2022-10-31T03:42:18.001Z,1008.24
2022-10-31T03:43:18.049Z,1008.23
2022-10-31T03:44:17.956Z,1008.23
2022-10-31T03:45:17.940Z,1008.22
2022-10-31T03:46:17.936Z,1008.20
2022-10-31T03:47:17.934Z,1008.20
2022-10-31T03:48:17.940Z,1008.19
2022-10-31T03:49:17.905Z,1008.19
2022-10-31T03:50:17.894Z,1008.21
2022-10-31T03:51:17.868Z,1008.22
2022-10-31T03:52:17.897Z,1008.23
2022-10-31T03:53:17.847Z,1008.23
2022-10-31T03:54:17.862Z,1008.23
2022-10-31T03:55:17.835Z,1008.25
2022-10-31T03:56:17.831Z,1008.27
2022-10-31T03:57:17.834Z,1008.30
2022-10-31T03:58:17.796Z,1008.31
2022-10-31T03:59:17.795Z,1008.32
2022-10-31T04:00:17.792Z,1008.34
2022-10-31T04:01:17.961Z,1008.36
2022-10-31T04:02:17.923Z,1008.39
2022-10-31T04:03:17.758Z,1008.40
2022-10-31T04:04:17.746Z,1008.42
2022-10-31T04:05:17.794Z,1008.43
2022-10-31T04:06:17.710Z,1008.44
2022-10-31T04:07:17.701Z,1008.46
2022-10-31T04:08:17.744Z,1008.47
2022-10-31T04:09:17.675Z,1008.48
2022-10-31T04:10:17.673Z,1008.49
2022-10-31T04:11:17.654Z,1008.48
2022-10-31T04:12:26.642Z,1008.47
2022-10-31T04:13:24.218Z,1008.47
2022-10-31T04:14:17.638Z,1008.47
2022-10-31T04:15:25.121Z,1008.48
2022-10-31T04:16:17.645Z,1008.49
2022-10-31T04:17:17.604Z,1008.50
2022-10-31T04:18:17.605Z,1008.50
2022-10-31T04:19:17.569Z,1008.49
2022-10-31T04:20:17.568Z,1008.48
2022-10-31T04:21:17.549Z,1008.46
2022-10-31T04:22:17.543Z,1008.44
2022-10-31T04:23:17.554Z,1008.43
2022-10-31T04:24:17.520Z,1008.41
2022-10-31T04:25:17.509Z,1008.40
2022-10-31T04:26:17.542Z,1008.39
2022-10-31T04:27:17.488Z,1008.37
2022-10-31T04:28:20.513Z,1008.36
2022-10-31T04:29:17.474Z,1008.36
2022-10-31T04:30:17.478Z,1008.37
2022-10-31T04:31:17.456Z,1008.37
2022-10-31T04:32:17.437Z,1008.38
2022-10-31T04:33:17.451Z,1008.39
2022-10-31T04:34:17.422Z,1008.39
2022-10-31T04:35:17.401Z,1008.39
2022-10-31T04:36:17.399Z,1008.39
2022-10-31T04:37:17.381Z,1008.39
2022-10-31T04:38:17.392Z,1008.39
2022-10-31T04:39:19.379Z,1008.37
2022-10-31T04:40:17.373Z,1008.37
2022-10-31T04:41:17.349Z,1008.37
2022-10-31T04:42:17.336Z,1008.37
2022-10-31T04:43:17.416Z,1008.37
2022-10-31T04:44:17.322Z,1008.37
2022-10-31T04:45:20.218Z,1008.38
2022-10-31T04:46:17.290Z,1008.38
2022-10-31T04:47:17.294Z,1008.38
2022-10-31T04:48:17.304Z,1008.37
2022-10-31T04:49:17.263Z,1008.36
2022-10-31T04:50:17.253Z,1008.35
2022-10-31T04:51:17.233Z,1008.34
2022-10-31T04:52:17.260Z,1008.33
2022-10-31T04:53:17.239Z,1008.32
2022-10-31T04:54:17.219Z,1008.31
2022-10-31T04:55:17.211Z,1008.30
2022-10-31T04:56:17.203Z,1008.29
2022-10-31T04:57:17.204Z,1008.29
2022-10-31T04:59:17.174Z,1008.28
2022-10-31T05:00:17.171Z,1008.27
2022-10-31T05:01:17.378Z,1008.27
2022-10-31T05:02:17.244Z,1008.28
2022-10-31T05:03:17.130Z,1008.29
2022-10-31T05:04:17.105Z,1008.30
2022-10-31T05:05:17.087Z,1008.30
2022-10-31T05:06:17.086Z,1008.30
2022-10-31T05:07:17.060Z,1008.28
2022-10-31T05:08:17.108Z,1008.27
2022-10-31T05:09:17.054Z,1008.26
2022-10-31T05:10:17.049Z,1008.25
2022-10-31T05:11:17.024Z,1008.24
2022-10-31T05:12:17.023Z,1008.23
2022-10-31T05:13:17.107Z,1008.23
2022-10-31T05:14:17.010Z,1008.22
2022-10-31T05:15:17.013Z,1008.20
2022-10-31T05:16:16.975Z,1008.17
2022-10-31T05:17:16.957Z,1008.15
2022-10-31T05:18:16.968Z,1008.13
2022-10-31T05:19:16.942Z,1008.13
2022-10-31T05:20:16.932Z,1008.13
2022-10-31T05:21:16.956Z,1008.13
2022-10-31T05:22:16.911Z,1008.12
2022-10-31T05:23:16.924Z,1008.10
2022-10-31T05:24:16.899Z,1008.08
2022-10-31T05:25:16.875Z,1008.07
2022-10-31T05:26:16.879Z,1008.06
2022-10-31T05:27:16.851Z,1008.07
2022-10-31T05:28:16.874Z,1008.06
2022-10-31T05:29:16.830Z,1008.07
2022-10-31T05:30:16.836Z,1008.07
2022-10-31T05:31:16.846Z,1008.09
2022-10-31T05:32:16.806Z,1008.10
2022-10-31T05:33:16.814Z,1008.10
2022-10-31T05:34:16.788Z,1008.11
2022-10-31T05:35:16.788Z,1008.11
2022-10-31T05:36:16.768Z,1008.11
2022-10-31T05:37:16.764Z,1008.11
2022-10-31T05:38:16.777Z,1008.13
2022-10-31T05:39:16.723Z,1008.14
2022-10-31T05:40:16.714Z,1008.14
2022-10-31T05:41:16.712Z,1008.15
2022-10-31T05:42:16.701Z,1008.14
2022-10-31T05:43:16.704Z,1008.14
2022-10-31T05:44:16.699Z,1008.13
2022-10-31T05:45:16.660Z,1008.12
2022-10-31T05:46:16.660Z,1008.12
2022-10-31T05:47:16.588Z,1008.11
2022-10-31T05:48:16.654Z,1008.11
2022-10-31T05:49:16.583Z,1008.12
2022-10-31T05:50:16.577Z,1008.12
2022-10-31T05:51:16.554Z,1008.12
2022-10-31T05:52:16.560Z,1008.13
2022-10-31T05:53:16.587Z,1008.14
2022-10-31T05:54:16.531Z,1008.16
2022-10-31T05:55:16.539Z,1008.18
2022-10-31T05:56:16.539Z,1008.19
2022-10-31T05:57:16.495Z,1008.20
2022-10-31T05:58:16.518Z,1008.19
2022-10-31T05:59:16.480Z,1008.18
2022-10-31T06:00:16.496Z,1008.16
2022-10-31T06:01:16.536Z,1008.13
2022-10-31T06:02:16.427Z,1008.13
2022-10-31T06:03:16.445Z,1008.13
2022-10-31T06:04:16.491Z,1008.14
2022-10-31T06:05:16.403Z,1008.14
2022-10-31T06:06:16.390Z,1008.14
2022-10-31T06:07:16.383Z,1008.13
2022-10-31T06:08:16.412Z,1008.11
2022-10-31T06:09:16.372Z,1008.09
2022-10-31T06:10:16.345Z,1008.09
2022-10-31T06:11:16.345Z,1008.08
2022-10-31T06:12:16.326Z,1008.07
2022-10-31T06:13:16.343Z,1008.07
2022-10-31T06:14:16.303Z,1008.07
2022-10-31T06:15:21.080Z,1008.07
2022-10-31T06:16:16.336Z,1008.07
2022-10-31T06:17:16.272Z,1008.05
2022-10-31T06:18:16.283Z,1008.04
2022-10-31T06:19:16.257Z,1008.03
2022-10-31T06:20:16.237Z,1008.03
2022-10-31T06:21:18.881Z,1008.03
2022-10-31T06:22:16.215Z,1008.04
2022-10-31T06:23:16.238Z,1008.05
2022-10-31T06:24:16.204Z,1008.08
2022-10-31T06:25:16.205Z,1008.09
2022-10-31T06:26:16.174Z,1008.09
2022-10-31T06:27:16.186Z,1008.09
2022-10-31T06:28:16.202Z,1008.08
2022-10-31T06:29:16.145Z,1008.07
2022-10-31T06:30:16.147Z,1008.07
2022-10-31T06:31:16.130Z,1008.08
2022-10-31T06:32:16.127Z,1008.09
2022-10-31T06:33:16.135Z,1008.10
2022-10-31T06:34:16.128Z,1008.12
2022-10-31T06:35:16.093Z,1008.14
2022-10-31T06:36:16.140Z,1008.16
2022-10-31T06:37:16.068Z,1008.18
2022-10-31T06:38:16.083Z,1008.20
2022-10-31T06:39:16.048Z,1008.21
2022-10-31T06:40:16.025Z,1008.21
2022-10-31T06:41:16.032Z,1008.21
2022-10-31T06:42:22.506Z,1008.20
2022-10-31T06:43:16.182Z,1008.19
2022-10-31T06:44:23.498Z,1008.20
2022-10-31T06:45:22.597Z,1008.20
2022-10-31T06:46:22.480Z,1008.21
2022-10-31T06:47:22.490Z,1008.22
2022-10-31T06:48:24.179Z,1008.23
2022-10-31T06:49:15.996Z,1008.24
2022-10-31T06:50:23.473Z,1008.25
2022-10-31T06:51:15.949Z,1008.25
2022-10-31T06:52:15.940Z,1008.24
2022-10-31T06:53:15.939Z,1008.24
2022-10-31T06:54:15.889Z,1008.25
2022-10-31T06:55:15.882Z,1008.27
2022-10-31T06:56:15.887Z,1008.28
2022-10-31T06:57:15.865Z,1008.28
2022-10-31T06:58:15.917Z,1008.28
2022-10-31T06:59:15.850Z,1008.28
2022-10-31T07:00:15.829Z,1008.29
2022-10-31T07:01:15.969Z,1008.29
2022-10-31T07:02:15.985Z,1008.29
2022-10-31T07:03:23.332Z,1008.29
2022-10-31T07:04:22.298Z,1008.30
2022-10-31T07:05:15.776Z,1008.31
2022-10-31T07:06:22.608Z,1008.33
2022-10-31T07:07:22.275Z,1008.34
2022-10-31T07:08:23.377Z,1008.35
2022-10-31T07:09:22.340Z,1008.34
2022-10-31T07:10:22.248Z,1008.34
2022-10-31T07:11:15.715Z,1008.33
2022-10-31T07:12:15.694Z,1008.31
2022-10-31T07:13:15.741Z,1008.30
2022-10-31T07:14:15.692Z,1008.31
2022-10-31T07:15:15.713Z,1008.32
2022-10-31T07:16:15.663Z,1008.33
2022-10-31T07:17:15.655Z,1008.34
2022-10-31T07:18:15.666Z,1008.33
2022-10-31T07:19:15.627Z,1008.33
2022-10-31T07:20:15.612Z,1008.34
2022-10-31T07:21:15.610Z,1008.34
2022-10-31T07:22:15.638Z,1008.34
2022-10-31T07:23:15.608Z,1008.33
2022-10-31T07:24:15.576Z,1008.33
2022-10-31T07:25:15.590Z,1008.34
2022-10-31T07:26:15.576Z,1008.35
2022-10-31T07:27:15.569Z,1008.37
2022-10-31T07:28:15.568Z,1008.38
2022-10-31T07:29:15.541Z,1008.39
2022-10-31T07:30:15.528Z,1008.39
2022-10-31T07:31:15.516Z,1008.38
2022-10-31T07:32:15.501Z,1008.38
2022-10-31T07:33:15.505Z,1008.38
2022-10-31T07:34:15.487Z,1008.39
2022-10-31T07:35:15.474Z,1008.39
2022-10-31T07:36:15.462Z,1008.39
2022-10-31T07:37:15.480Z,1008.38
2022-10-31T07:38:15.455Z,1008.38
2022-10-31T07:39:15.444Z,1008.38
2022-10-31T07:40:15.404Z,1008.37
2022-10-31T07:41:15.426Z,1008.37
2022-10-31T07:42:15.388Z,1008.37
2022-10-31T07:43:15.406Z,1008.38
2022-10-31T07:44:15.400Z,1008.38
2022-10-31T07:45:15.366Z,1008.39
2022-10-31T07:46:15.332Z,1008.39
2022-10-31T07:47:15.327Z,1008.38
2022-10-31T07:48:15.348Z,1008.37
2022-10-31T07:49:15.341Z,1008.37
2022-10-31T07:50:15.295Z,1008.36
2022-10-31T07:51:15.299Z,1008.36
2022-10-31T07:52:15.313Z,1008.35
2022-10-31T07:53:15.275Z,1008.37
2022-10-31T07:54:15.271Z,1008.37
2022-10-31T07:55:15.250Z,1008.38
2022-10-31T07:56:15.237Z,1008.38
2022-10-31T07:57:16.074Z,1008.38
2022-10-31T07:58:15.218Z,1008.38
2022-10-31T07:59:15.227Z,1008.38
2022-10-31T08:00:15.207Z,1008.38
2022-10-31T08:01:15.185Z,1008.38
2022-10-31T08:02:15.176Z,1008.38
2022-10-31T08:03:15.156Z,1008.36
2022-10-31T08:04:15.159Z,1008.34
2022-10-31T08:05:15.140Z,1008.33
2022-10-31T08:06:15.134Z,1008.32
2022-10-31T08:07:15.120Z,1008.33
2022-10-31T08:08:15.104Z,1008.34
2022-10-31T08:09:15.188Z,1008.35
2022-10-31T08:10:15.074Z,1008.35
2022-10-31T08:11:15.072Z,1008.36
2022-10-31T08:12:15.094Z,1008.37
2022-10-31T08:13:15.079Z,1008.38
2022-10-31T08:14:15.042Z,1008.38
2022-10-31T08:15:15.039Z,1008.38
2022-10-31T08:16:15.091Z,1008.37
2022-10-31T08:17:15.031Z,1008.36
2022-10-31T08:18:15.054Z,1008.35
2022-10-31T08:19:15.000Z,1008.34
2022-10-31T08:20:14.984Z,1008.33
2022-10-31T08:21:14.972Z,1008.31
2022-10-31T08:22:14.960Z,1008.29
2022-10-31T08:23:14.969Z,1008.27
2022-10-31T08:24:14.998Z,1008.24
2022-10-31T08:25:14.921Z,1008.21
2022-10-31T08:26:14.935Z,1008.20
2022-10-31T08:27:14.911Z,1008.20
2022-10-31T08:28:14.899Z,1008.20
2022-10-31T08:29:14.931Z,1008.21
2022-10-31T08:30:14.873Z,1008.21
2022-10-31T08:31:14.875Z,1008.22
2022-10-31T08:32:14.866Z,1008.22
2022-10-31T08:33:14.865Z,1008.22
2022-10-31T08:34:14.828Z,1008.22
2022-10-31T08:35:14.834Z,1008.23
2022-10-31T08:36:14.806Z,1008.25
2022-10-31T08:37:14.804Z,1008.28
2022-10-31T08:38:14.816Z,1008.31
2022-10-31T08:39:14.794Z,1008.33
2022-10-31T08:40:14.774Z,1008.34
2022-10-31T08:41:14.768Z,1008.31
2022-10-31T08:42:14.789Z,1008.26
2022-10-31T08:43:14.763Z,1008.21
2022-10-31T08:44:14.720Z,1008.19
2022-10-31T08:45:14.724Z,1008.19
2022-10-31T08:46:14.705Z,1008.18
2022-10-31T08:47:14.709Z,1008.16
2022-10-31T08:48:14.721Z,1008.13
2022-10-31T08:49:14.683Z,1008.10
2022-10-31T08:50:14.666Z,1008.08
2022-10-31T08:51:14.659Z,1008.06
2022-10-31T08:52:14.734Z,1008.05
2022-10-31T08:53:14.668Z,1008.03
2022-10-31T08:54:14.621Z,1008.04
2022-10-31T08:55:14.619Z,1008.04
2022-10-31T08:56:14.634Z,1008.06
2022-10-31T08:57:14.600Z,1008.06
2022-10-31T08:58:14.639Z,1008.05
2022-10-31T08:59:14.576Z,1008.05
2022-10-31T09:00:14.563Z,1008.05
2022-10-31T09:01:14.708Z,1008.05
2022-10-31T09:02:14.663Z,1008.05
2022-10-31T09:03:14.562Z,1008.06
2022-10-31T09:04:14.525Z,1008.07
2022-10-31T09:05:14.539Z,1008.07
2022-10-31T09:06:14.664Z,1008.07
2022-10-31T09:07:20.543Z,1008.08
2022-10-31T09:08:16.599Z,1008.09
2022-10-31T09:09:14.483Z,1008.11
2022-10-31T09:10:14.464Z,1008.12
2022-10-31T09:11:14.476Z,1008.12
2022-10-31T09:12:14.440Z,1008.13
2022-10-31T09:13:14.483Z,1008.13
2022-10-31T09:14:14.420Z,1008.13
2022-10-31T09:15:14.414Z,1008.12
2022-10-31T09:16:14.413Z,1008.11
2022-10-31T09:17:14.389Z,1008.10
2022-10-31T09:18:14.410Z,1008.09
2022-10-31T09:19:14.384Z,1008.10
2022-10-31T09:20:14.351Z,1008.08
2022-10-31T09:21:14.366Z,1008.07
2022-10-31T09:22:20.834Z,1008.05
2022-10-31T09:23:22.956Z,1008.05
2022-10-31T09:24:14.303Z,1008.05
2022-10-31T09:25:20.811Z,1008.05
2022-10-31T09:26:14.285Z,1008.05
2022-10-31T09:27:14.284Z,1008.04
2022-10-31T09:28:14.289Z,1008.02
2022-10-31T09:29:14.255Z,1008.02
2022-10-31T09:30:14.244Z,1008.01
2022-10-31T09:31:14.239Z,1008.02
2022-10-31T09:32:14.240Z,1008.03
2022-10-31T09:33:14.232Z,1008.03
2022-10-31T09:34:14.200Z,1008.04
2022-10-31T09:35:14.211Z,1008.04
2022-10-31T09:36:14.189Z,1008.04
2022-10-31T09:37:14.167Z,1008.05
2022-10-31T09:38:14.204Z,1008.04
2022-10-31T09:39:14.142Z,1008.04
2022-10-31T09:40:14.137Z,1008.03
2022-10-31T09:41:15.480Z,1008.02
2022-10-31T09:42:14.124Z,1008.00
2022-10-31T09:43:14.120Z,1007.98
2022-10-31T09:44:14.106Z,1007.93
2022-10-31T09:45:14.093Z,1007.92
2022-10-31T09:46:14.085Z,1007.92
2022-10-31T09:47:14.056Z,1007.91
2022-10-31T09:48:14.077Z,1007.91
2022-10-31T09:49:14.113Z,1007.91
2022-10-31T09:50:14.027Z,1007.91
2022-10-31T09:51:14.018Z,1007.91
2022-10-31T09:52:14.013Z,1007.90
2022-10-31T09:53:14.016Z,1007.87
2022-10-31T09:54:14.001Z,1007.86
2022-10-31T09:55:13.979Z,1007.86
2022-10-31T09:56:13.969Z,1007.84
2022-10-31T09:57:13.985Z,1007.83
2022-10-31T09:58:13.979Z,1007.83
2022-10-31T09:59:13.952Z,1007.83
2022-10-31T10:00:13.940Z,1007.84
2022-10-31T10:01:14.016Z,1007.85
2022-10-31T10:02:13.986Z,1007.87
2022-10-31T10:03:13.918Z,1007.88
2022-10-31T10:04:18.300Z,1007.88
2022-10-31T10:05:13.879Z,1007.87
2022-10-31T10:06:13.873Z,1007.86
2022-10-31T10:07:13.842Z,1007.84
2022-10-31T10:08:13.892Z,1007.81
2022-10-31T10:09:13.932Z,1007.79
2022-10-31T10:10:13.838Z,1007.78
2022-10-31T10:11:13.837Z,1007.78
2022-10-31T10:12:13.800Z,1007.77
2022-10-31T10:13:14.028Z,1007.78
2022-10-31T10:14:13.804Z,1007.79
2022-10-31T10:15:13.770Z,1007.78
2022-10-31T10:16:13.764Z,1007.78
2022-10-31T10:17:13.740Z,1007.77
2022-10-31T10:18:13.739Z,1007.76
2022-10-31T10:19:13.752Z,1007.74
2022-10-31T10:20:13.716Z,1007.74
2022-10-31T10:21:13.701Z,1007.72
2022-10-31T10:22:13.695Z,1007.71
2022-10-31T10:23:13.683Z,1007.69
2022-10-31T10:24:13.693Z,1007.68
2022-10-31T10:25:13.684Z,1007.68
2022-10-31T10:26:13.655Z,1007.67
2022-10-31T10:27:14.962Z,1007.68
2022-10-31T10:28:13.638Z,1007.67
2022-10-31T10:29:13.645Z,1007.67
2022-10-31T10:30:13.652Z,1007.67
2022-10-31T10:31:13.589Z,1007.66
2022-10-31T10:32:13.589Z,1007.66
2022-10-31T10:33:13.570Z,1007.65
2022-10-31T10:34:13.581Z,1007.63
2022-10-31T10:35:13.556Z,1007.62
2022-10-31T10:36:13.574Z,1007.60
2022-10-31T10:37:13.524Z,1007.60
2022-10-31T10:38:13.531Z,1007.60
2022-10-31T10:39:13.558Z,1007.60
2022-10-31T10:40:13.493Z,1007.58
2022-10-31T10:41:13.482Z,1007.57
2022-10-31T10:42:13.478Z,1007.54
2022-10-31T10:43:13.461Z,1007.52
2022-10-31T10:44:13.484Z,1007.50
2022-10-31T10:45:13.440Z,1007.47
2022-10-31T10:46:13.440Z,1007.45
2022-10-31T10:47:13.415Z,1007.44
2022-10-31T10:48:13.419Z,1007.43
2022-10-31T10:49:13.417Z,1007.41
2022-10-31T10:50:13.409Z,1007.41
2022-10-31T10:51:25.622Z,1007.39
2022-10-31T10:52:27.454Z,1007.37
2022-10-31T10:53:13.384Z,1007.36
2022-10-31T10:54:13.370Z,1007.33
2022-10-31T10:55:13.329Z,1007.31
2022-10-31T10:56:13.343Z,1007.27
2022-10-31T10:57:13.313Z,1007.25
2022-10-31T10:58:13.308Z,1007.25
2022-10-31T10:59:13.323Z,1007.24
2022-10-31T11:00:13.288Z,1007.24
2022-10-31T11:01:13.394Z,1007.23
2022-10-31T11:02:13.268Z,1007.22
2022-10-31T11:03:13.256Z,1007.18
2022-10-31T11:04:13.257Z,1007.13
2022-10-31T11:05:13.254Z,1007.08
2022-10-31T11:06:13.215Z,1007.04
2022-10-31T11:07:13.224Z,1007.03
2022-10-31T11:08:13.228Z,1007.02
2022-10-31T11:09:13.204Z,1007.02
2022-10-31T11:10:13.179Z,1007.01
2022-10-31T11:11:13.158Z,1007.01
2022-10-31T11:12:13.156Z,1006.99
2022-10-31T11:13:13.142Z,1006.97
2022-10-31T11:14:13.150Z,1006.94
2022-10-31T11:15:13.114Z,1006.91
2022-10-31T11:16:13.107Z,1006.88
2022-10-31T11:17:13.101Z,1006.88
2022-10-31T11:18:13.160Z,1006.89
2022-10-31T11:19:13.104Z,1006.89
2022-10-31T11:20:16.363Z,1006.88
2022-10-31T11:21:13.064Z,1006.86
2022-10-31T11:22:13.060Z,1006.83
2022-10-31T11:23:13.056Z,1006.80
2022-10-31T11:24:13.079Z,1006.77
2022-10-31T11:25:13.011Z,1006.79
2022-10-31T11:26:13.025Z,1006.76
2022-10-31T11:27:13.031Z,1006.75
2022-10-31T11:28:12.981Z,1006.75
2022-10-31T11:29:12.996Z,1006.75
2022-10-31T11:30:12.971Z,1006.75
2022-10-31T11:31:12.964Z,1006.74
2022-10-31T11:32:12.948Z,1006.71
2022-10-31T11:33:12.954Z,1006.69
2022-10-31T11:34:12.929Z,1006.67
2022-10-31T11:35:12.930Z,1006.64
2022-10-31T11:36:12.938Z,1006.60
2022-10-31T11:37:12.887Z,1006.57
2022-10-31T11:38:12.903Z,1006.54
2022-10-31T11:39:12.863Z,1006.52
2022-10-31T11:40:12.855Z,1006.51
2022-10-31T11:41:12.851Z,1006.47
2022-10-31T11:42:12.853Z,1006.44
2022-10-31T11:43:12.820Z,1006.45
2022-10-31T11:44:12.838Z,1006.49
2022-10-31T11:45:12.806Z,1006.50
2022-10-31T11:46:12.802Z,1006.46
2022-10-31T11:47:12.778Z,1006.43
2022-10-31T11:48:12.774Z,1006.40
2022-10-31T11:49:12.778Z,1006.36
2022-10-31T11:50:12.774Z,1006.31
2022-10-31T11:51:12.746Z,1006.28
2022-10-31T11:52:12.747Z,1006.27
2022-10-31T11:53:12.737Z,1006.22
2022-10-31T11:54:12.708Z,1006.22
2022-10-31T11:55:12.704Z,1006.19
2022-10-31T11:56:12.688Z,1006.13
2022-10-31T11:57:19.215Z,1006.09
2022-10-31T11:58:20.478Z,1006.03
2022-10-31T11:59:12.651Z,1005.99
2022-10-31T12:00:12.822Z,1005.97
2022-10-31T12:01:12.669Z,1005.96
2022-10-31T12:02:12.743Z,1005.97
2022-10-31T12:03:12.648Z,1005.94
2022-10-31T12:04:12.611Z,1005.94
2022-10-31T12:05:12.587Z,1005.94
2022-10-31T12:06:12.585Z,1005.94
2022-10-31T12:07:12.563Z,1005.93
2022-10-31T12:08:12.697Z,1005.91